createdAt,value
2022-12-04T00:01:23.380Z,0.70
2022-12-04T00:03:56.576Z,0.62
2022-12-04T00:06:25.107Z,0.52
2022-12-04T00:08:53.298Z,0.47
2022-12-04T00:11:23.759Z,0.59
2022-12-04T00:13:51.731Z,0.61
2022-12-04T00:16:22.835Z,0.67
2022-12-04T00:18:51.000Z,0.40
2022-12-04T00:21:20.172Z,0.61
2022-12-04T00:23:48.378Z,0.72
2022-12-04T00:26:27.487Z,0.72
2022-12-04T00:28:56.160Z,0.79
2022-12-04T00:31:26.723Z,0.78
2022-12-04T00:33:54.130Z,0.85
2022-12-04T00:36:26.102Z,0.84
2022-12-04T00:38:54.780Z,0.94
2022-12-04T00:41:26.660Z,0.90
2022-12-04T00:43:55.435Z,0.97
2022-12-04T00:46:25.937Z,1.12
2022-12-04T00:48:53.776Z,1.13
2022-12-04T00:51:23.758Z,1.21
2022-12-04T00:53:52.996Z,1.22
2022-12-04T00:56:27.274Z,1.26
2022-12-04T00:58:56.061Z,1.33
2022-12-04T01:01:24.834Z,1.46
2022-12-04T01:03:53.133Z,1.57
2022-12-04T01:06:26.438Z,1.54
2022-12-04T01:08:56.387Z,1.47
2022-12-04T01:11:25.525Z,1.59
2022-12-04T01:13:53.191Z,1.62
2022-12-04T01:16:31.599Z,1.71
2022-12-04T01:18:59.498Z,1.70
2022-12-04T01:21:27.380Z,1.67
2022-12-04T01:23:54.806Z,1.67
2022-12-04T01:26:22.310Z,1.73
2022-12-04T01:28:49.782Z,1.73
2022-12-04T01:31:19.700Z,1.74
2022-12-04T01:33:47.687Z,1.60
2022-12-04T01:36:17.576Z,1.75
2022-12-04T01:38:45.433Z,1.68
2022-12-04T01:41:15.552Z,1.65
2022-12-04T01:43:43.299Z,1.64
2022-12-04T01:46:11.549Z,1.55
2022-12-04T01:48:47.367Z,1.57
2022-12-04T01:51:31.193Z,1.59
2022-12-04T01:54:00.711Z,1.59
2022-12-04T01:56:34.538Z,1.43
2022-12-04T01:59:03.729Z,1.50
2022-12-04T02:01:44.650Z,1.55
2022-12-04T02:04:11.951Z,1.59
2022-12-04T02:06:39.308Z,1.60
2022-12-04T02:09:07.194Z,1.60
2022-12-04T02:11:52.164Z,1.64
2022-12-04T02:14:30.820Z,1.58
2022-12-04T02:17:17.849Z,1.54
2022-12-04T02:19:54.594Z,1.66
2022-12-04T02:22:46.030Z,1.72
2022-12-04T02:25:48.522Z,1.77
2022-12-04T02:28:20.204Z,1.82
2022-12-04T02:30:49.833Z,1.86
2022-12-04T02:33:26.702Z,1.81
2022-12-04T02:36:08.016Z,1.83
2022-12-04T02:38:42.765Z,1.78
2022-12-04T02:41:16.864Z,1.82
2022-12-04T02:43:48.090Z,1.75
2022-12-04T02:46:29.129Z,1.73
2022-12-04T02:49:00.633Z,1.75
2022-12-04T02:51:32.829Z,1.80
2022-12-04T02:54:23.265Z,1.80
2022-12-04T02:56:52.678Z,1.77
2022-12-04T02:59:27.128Z,1.75
2022-12-04T03:01:59.674Z,1.74
2022-12-04T03:04:31.568Z,1.69
2022-12-04T03:07:05.127Z,1.70
2022-12-04T03:09:44.474Z,1.66
2022-12-04T03:12:50.525Z,1.64
2022-12-04T03:15:43.949Z,1.63
2022-12-04T03:18:23.521Z,1.64
2022-12-04T03:20:58.394Z,1.59
2022-12-04T03:23:31.703Z,1.61
2022-12-04T03:26:36.223Z,1.70
2022-12-04T03:29:09.383Z,1.74
2022-12-04T03:31:49.385Z,1.78
2022-12-04T03:34:24.934Z,1.81
2022-12-04T03:36:59.467Z,1.66
2022-12-04T03:39:31.082Z,1.83
2022-12-04T03:42:05.790Z,1.75
2022-12-04T03:44:41.158Z,1.98
2022-12-04T03:47:15.143Z,1.97
2022-12-04T03:50:02.973Z,1.98
2022-12-04T03:52:57.624Z,2.03
2022-12-04T03:55:39.885Z,1.89
2022-12-04T03:58:11.609Z,2.00
2022-12-04T04:00:42.834Z,2.03
2022-12-04T04:03:20.552Z,2.06
2022-12-04T04:05:55.172Z,2.05
2022-12-04T04:08:27.268Z,1.97
2022-12-04T04:11:01.203Z,2.13
2022-12-04T04:13:57.866Z,2.19
2022-12-04T04:16:47.053Z,2.03
2022-12-04T04:19:38.850Z,2.09
2022-12-04T04:22:28.883Z,2.23
2022-12-04T04:25:03.633Z,2.17
2022-12-04T04:27:30.846Z,2.16
2022-12-04T04:29:59.119Z,2.17
2022-12-04T04:33:01.937Z,2.23
2022-12-04T04:35:54.010Z,2.26
2022-12-04T04:39:01.785Z,2.31
2022-12-04T04:41:40.925Z,2.34
2022-12-04T04:44:33.570Z,2.37
2022-12-04T04:47:06.793Z,2.37
2022-12-04T04:49:38.079Z,2.19
2022-12-04T04:52:05.543Z,2.38
2022-12-04T04:54:35.124Z,2.38
2022-12-04T04:57:02.678Z,2.39
2022-12-04T04:59:30.077Z,2.34
2022-12-04T05:01:57.422Z,2.38
2022-12-04T05:04:25.018Z,2.39
2022-12-04T05:06:52.392Z,2.37
2022-12-04T05:09:19.585Z,2.24
2022-12-04T05:11:46.892Z,2.28
2022-12-04T05:14:14.073Z,2.26
2022-12-04T05:16:42.054Z,2.22
2022-12-04T05:19:28.493Z,2.18
2022-12-04T05:21:58.077Z,2.14
2022-12-04T05:24:25.332Z,2.13
2022-12-04T05:26:53.054Z,2.09
2022-12-04T05:29:20.431Z,2.03
2022-12-04T05:31:47.939Z,1.94
2022-12-04T05:34:15.379Z,1.88
2022-12-04T05:36:42.705Z,1.91
2022-12-04T05:39:09.949Z,1.94
2022-12-04T05:41:37.261Z,1.89
2022-12-04T05:44:04.808Z,1.88
2022-12-04T05:46:32.482Z,1.86
2022-12-04T05:48:59.965Z,1.82
2022-12-04T05:51:28.206Z,1.84
2022-12-04T05:53:55.815Z,1.86
2022-12-04T05:56:23.202Z,1.92
2022-12-04T05:58:50.588Z,1.88
2022-12-04T06:01:20.570Z,1.86
2022-12-04T06:03:48.062Z,1.88
2022-12-04T06:06:21.894Z,1.87
2022-12-04T06:08:53.158Z,1.91
2022-12-04T06:11:23.922Z,1.80
2022-12-04T06:13:51.884Z,1.90
2022-12-04T06:16:26.633Z,1.77
2022-12-04T06:18:57.474Z,1.98
2022-12-04T06:21:28.127Z,2.02
2022-12-04T06:23:56.386Z,2.04
2022-12-04T06:26:25.067Z,2.04
2022-12-04T06:28:57.862Z,2.05
2022-12-04T06:31:27.572Z,2.14
2022-12-04T06:33:56.845Z,2.00
2022-12-04T06:36:24.960Z,2.14
2022-12-04T06:38:54.903Z,2.10
2022-12-04T06:41:22.913Z,2.18
2022-12-04T06:43:52.064Z,2.14
2022-12-04T06:46:22.455Z,2.08
2022-12-04T06:48:51.049Z,2.06
2022-12-04T06:51:24.220Z,1.98
2022-12-04T06:53:51.738Z,2.03
2022-12-04T06:56:22.176Z,1.98
2022-12-04T06:58:53.709Z,2.10
2022-12-04T07:01:24.242Z,2.05
2022-12-04T07:03:52.640Z,2.09
2022-12-04T07:06:22.119Z,2.07
2022-12-04T07:08:53.133Z,1.90
2022-12-04T07:11:21.790Z,2.10
2022-12-04T07:13:50.420Z,2.12
2022-12-04T07:16:21.235Z,2.14
2022-12-04T07:18:57.523Z,2.11
2022-12-04T07:21:27.977Z,2.08
2022-12-04T07:24:00.140Z,2.00
2022-12-04T07:26:29.629Z,2.03
2022-12-04T07:28:58.394Z,1.98
2022-12-04T07:31:30.689Z,1.90
2022-12-04T07:33:58.745Z,1.95
2022-12-04T07:36:27.748Z,2.01
2022-12-04T07:38:56.654Z,1.99
2022-12-04T07:41:25.718Z,2.01
2022-12-04T07:43:54.302Z,1.82
2022-12-04T07:46:25.137Z,1.98
2022-12-04T07:48:52.957Z,1.96
2022-12-04T07:51:22.923Z,2.00
2022-12-04T07:53:51.450Z,2.09
2022-12-04T07:56:19.246Z,2.08
2022-12-04T07:58:47.656Z,2.15
2022-12-04T08:02:07.304Z,2.25
2022-12-04T08:04:35.170Z,2.21
2022-12-04T08:07:02.574Z,2.29
2022-12-04T08:09:30.155Z,2.23
2022-12-04T08:11:57.404Z,2.26
2022-12-04T08:14:24.726Z,2.23
2022-12-04T08:16:53.067Z,2.19
2022-12-04T08:19:21.853Z,2.09
2022-12-04T08:21:49.210Z,1.88
2022-12-04T08:24:18.229Z,2.00
2022-12-04T08:26:46.166Z,1.92
2022-12-04T08:29:13.755Z,1.89
2022-12-04T08:31:42.046Z,1.79
2022-12-04T08:34:09.908Z,1.86
2022-12-04T08:36:37.615Z,1.77
2022-12-04T08:39:06.622Z,1.77
2022-12-04T08:41:34.145Z,2.30
2022-12-04T08:44:02.194Z,2.23
2022-12-04T08:46:29.911Z,2.16
2022-12-04T08:48:58.598Z,2.07
2022-12-04T08:51:29.373Z,2.30
2022-12-04T08:54:03.528Z,2.44
2022-12-04T08:56:36.580Z,2.67
2022-12-04T08:59:04.851Z,2.75
2022-12-04T09:01:35.483Z,2.43
2022-12-04T09:04:03.741Z,2.20
2022-12-04T09:06:34.623Z,2.23
2022-12-04T09:09:02.219Z,2.23
2022-12-04T09:11:31.158Z,2.11
2022-12-04T09:14:07.679Z,2.35
2022-12-04T09:16:35.878Z,2.45
2022-12-04T09:19:03.669Z,2.69
2022-12-04T09:21:31.863Z,2.64
2022-12-04T09:24:00.627Z,2.78
2022-12-04T09:26:30.251Z,2.36
2022-12-04T09:29:00.339Z,2.30
2022-12-04T09:31:28.305Z,2.65
2022-12-04T09:33:58.347Z,2.54
2022-12-04T09:36:25.657Z,2.83
2022-12-04T09:38:54.534Z,2.80
2022-12-04T09:41:45.915Z,2.78
2022-12-04T09:44:29.100Z,2.89
2022-12-04T09:47:04.949Z,3.09
2022-12-04T09:49:48.454Z,3.17
2022-12-04T09:52:52.312Z,3.50
2022-12-04T09:55:30.503Z,3.28
2022-12-04T09:58:02.646Z,3.41
2022-12-04T10:00:31.877Z,3.29
2022-12-04T10:03:07.293Z,3.01
2022-12-04T10:05:50.993Z,3.17
2022-12-04T10:08:18.400Z,3.20
2022-12-04T10:11:29.181Z,3.69
2022-12-04T10:14:11.885Z,3.81
2022-12-04T10:17:01.126Z,3.82
2022-12-04T10:19:54.343Z,3.90
2022-12-04T10:22:50.077Z,3.71
2022-12-04T10:25:22.132Z,3.50
2022-12-04T10:28:28.046Z,3.84
2022-12-04T10:31:00.414Z,3.89
2022-12-04T10:33:31.587Z,3.97
2022-12-04T10:35:59.329Z,4.15
2022-12-04T10:38:29.748Z,4.08
2022-12-04T10:41:03.670Z,3.88
2022-12-04T10:43:34.567Z,3.73
2022-12-04T10:46:07.365Z,3.84
2022-12-04T10:48:42.718Z,3.91
2022-12-04T10:51:21.982Z,4.13
2022-12-04T10:53:50.338Z,4.16
2022-12-04T10:56:26.284Z,4.28
2022-12-04T10:58:56.902Z,4.45
2022-12-04T11:01:25.199Z,4.66
2022-12-04T11:04:09.799Z,4.54
2022-12-04T11:06:37.530Z,4.38
2022-12-04T11:09:05.039Z,4.42
2022-12-04T11:11:34.439Z,4.38
2022-12-04T11:14:21.257Z,4.45
2022-12-04T11:17:00.155Z,4.61
2022-12-04T11:19:34.900Z,4.61
2022-12-04T11:22:14.748Z,4.81
2022-12-04T11:24:43.648Z,5.13
2022-12-04T11:27:22.322Z,5.07
2022-12-04T11:29:51.549Z,5.16
2022-12-04T11:32:26.809Z,5.37
2022-12-04T11:34:57.647Z,5.31
2022-12-04T11:37:28.278Z,5.40
2022-12-04T11:39:56.262Z,5.42
2022-12-04T11:42:30.958Z,5.51
2022-12-04T11:45:18.711Z,5.47
2022-12-04T11:47:58.474Z,5.30
2022-12-04T11:51:13.033Z,5.56
2022-12-04T11:53:49.582Z,5.78
2022-12-04T11:56:32.485Z,5.84
2022-12-04T11:59:35.707Z,5.93
2022-12-04T12:02:39.513Z,5.97
2022-12-04T12:05:50.694Z,6.03
2022-12-04T12:08:51.239Z,6.15
2022-12-04T12:11:43.327Z,6.33
2022-12-04T12:14:41.428Z,6.32
2022-12-04T12:17:22.406Z,6.14
2022-12-04T12:20:15.676Z,6.20
2022-12-04T12:22:52.244Z,6.41
2022-12-04T12:25:34.765Z,6.42
2022-12-04T12:28:16.452Z,6.58
2022-12-04T12:30:57.329Z,6.41
2022-12-04T12:33:47.372Z,6.54
2022-12-04T12:36:15.824Z,6.43
2022-12-04T12:38:56.292Z,6.51
2022-12-04T12:41:54.371Z,6.70
2022-12-04T12:44:36.493Z,6.78
2022-12-04T12:47:18.121Z,6.66
2022-12-04T12:49:56.140Z,7.01
2022-12-04T12:52:35.835Z,6.89
2022-12-04T12:55:23.516Z,6.89
2022-12-04T12:58:05.229Z,6.93
2022-12-04T13:00:42.835Z,7.04
2022-12-04T13:03:22.217Z,6.85
2022-12-04T13:05:54.749Z,6.90
2022-12-04T13:08:31.229Z,6.98
2022-12-04T13:11:07.175Z,7.03
2022-12-04T13:13:40.030Z,7.06
2022-12-04T13:16:23.317Z,7.13
2022-12-04T13:19:02.058Z,7.14
2022-12-04T13:21:42.435Z,7.02
2022-12-04T13:24:34.543Z,7.41
2022-12-04T13:27:30.533Z,7.32
2022-12-04T13:30:24.318Z,7.50
2022-12-04T13:32:54.646Z,7.50
2022-12-04T13:35:54.532Z,7.63
2022-12-04T13:38:40.708Z,7.61
2022-12-04T13:41:17.699Z,7.39
2022-12-04T13:43:48.224Z,7.31
2022-12-04T13:46:31.238Z,7.34
2022-12-04T13:49:32.725Z,7.44
2022-12-04T13:52:06.766Z,7.55
2022-12-04T13:54:36.388Z,7.34
2022-12-04T13:57:20.064Z,7.59
2022-12-04T13:59:49.099Z,7.46
2022-12-04T14:02:35.766Z,7.56
2022-12-04T14:05:13.118Z,7.82
2022-12-04T14:08:07.121Z,7.67
2022-12-04T14:10:39.473Z,7.71
2022-12-04T14:13:16.437Z,7.76
2022-12-04T14:19:28.309Z,7.48
2022-12-04T14:21:56.141Z,7.43
2022-12-04T14:24:45.068Z,7.36
2022-12-04T14:27:52.225Z,7.39
2022-12-04T14:30:26.217Z,7.42
2022-12-04T14:32:59.804Z,7.44
2022-12-04T14:35:28.682Z,7.56
2022-12-04T14:37:59.477Z,7.52
2022-12-04T14:40:32.870Z,7.34
2022-12-04T14:43:00.655Z,7.68
2022-12-04T14:46:05.192Z,7.71
2022-12-04T14:48:36.352Z,7.62
2022-12-04T14:51:43.399Z,7.57
2022-12-04T14:54:34.357Z,7.47
2022-12-04T14:57:39.038Z,7.44
2022-12-04T15:00:19.663Z,7.39
2022-12-04T15:02:49.583Z,7.33
2022-12-04T15:05:22.716Z,7.37
2022-12-04T15:07:52.874Z,7.32
2022-12-04T15:10:50.957Z,7.28
2022-12-04T15:13:32.979Z,7.32
2022-12-04T15:16:15.986Z,7.36
2022-12-04T15:18:57.202Z,7.32
2022-12-04T15:21:37.110Z,7.36
2022-12-04T15:24:21.130Z,7.26
2022-12-04T15:26:50.546Z,7.32
2022-12-04T15:29:26.625Z,7.29
2022-12-04T15:32:04.410Z,7.25
2022-12-04T15:34:46.463Z,7.23
2022-12-04T15:37:20.022Z,7.17
2022-12-04T15:39:49.077Z,7.14
2022-12-04T15:42:22.806Z,7.09
2022-12-04T15:45:22.878Z,7.00
2022-12-04T15:47:56.579Z,6.76
2022-12-04T15:50:27.480Z,6.87
2022-12-04T15:53:02.887Z,6.81
2022-12-04T15:55:34.381Z,6.71
2022-12-04T15:58:25.676Z,6.53
2022-12-04T16:01:12.887Z,6.42
2022-12-04T16:03:43.656Z,6.46
2022-12-04T16:06:20.506Z,6.47
2022-12-04T16:08:54.608Z,6.35
2022-12-04T16:11:21.864Z,6.32
2022-12-04T16:14:09.969Z,6.24
2022-12-04T16:16:44.040Z,6.15
2022-12-04T16:19:32.217Z,6.05
2022-12-04T16:22:00.721Z,5.91
2022-12-04T16:24:28.748Z,5.90
2022-12-04T16:27:01.853Z,5.78
2022-12-04T16:29:30.842Z,5.69
2022-12-04T16:32:02.911Z,5.66
2022-12-04T16:34:31.274Z,5.54
2022-12-04T16:36:59.441Z,5.46
2022-12-04T16:39:27.121Z,5.37
2022-12-04T16:41:55.400Z,5.34
2022-12-04T16:44:22.603Z,5.22
2022-12-04T16:46:51.919Z,5.16
2022-12-04T16:49:19.614Z,5.07
2022-12-04T16:51:51.553Z,4.97
2022-12-04T16:54:18.947Z,4.97
2022-12-04T16:56:46.386Z,4.83
2022-12-04T16:59:17.284Z,4.85
2022-12-04T17:01:47.861Z,4.72
2022-12-04T17:04:17.390Z,4.68
2022-12-04T17:06:45.359Z,4.58
2022-12-04T17:09:13.875Z,4.46
2022-12-04T17:11:42.274Z,4.43
2022-12-04T17:14:10.907Z,4.32
2022-12-04T17:16:43.264Z,4.37
2022-12-04T17:19:12.909Z,4.19
2022-12-04T17:21:42.784Z,4.21
2022-12-04T17:24:12.026Z,4.18
2022-12-04T17:26:39.533Z,4.07
2022-12-04T17:29:07.043Z,4.03
2022-12-04T17:31:34.617Z,3.96
2022-12-04T17:34:01.866Z,3.88
2022-12-04T17:36:29.409Z,3.81
2022-12-04T17:38:59.160Z,3.77
2022-12-04T17:41:26.602Z,3.78
2022-12-04T17:43:54.425Z,3.61
2022-12-04T17:46:24.963Z,3.60
2022-12-04T17:48:52.786Z,3.59
2022-12-04T17:51:23.443Z,3.57
2022-12-04T17:53:51.812Z,3.59
2022-12-04T17:56:22.459Z,3.54
2022-12-04T17:58:51.821Z,3.47
2022-12-04T18:01:22.479Z,3.42
2022-12-04T18:04:05.110Z,3.31
2022-12-04T18:06:37.684Z,3.34
2022-12-04T18:09:06.716Z,3.07
2022-12-04T18:11:36.407Z,3.02
2022-12-04T18:14:12.297Z,3.16
2022-12-04T18:16:46.116Z,3.09
2022-12-04T18:19:14.139Z,3.06
2022-12-04T18:21:41.921Z,2.97
2022-12-04T18:24:09.517Z,2.92
2022-12-04T18:26:41.960Z,2.85
2022-12-04T18:29:11.536Z,2.89
2022-12-04T18:31:39.182Z,2.84
2022-12-04T18:34:07.890Z,2.80
2022-12-04T18:36:39.100Z,2.76
2022-12-04T18:39:11.727Z,2.66
2022-12-04T18:41:41.142Z,2.54
2022-12-04T18:44:11.043Z,2.64
2022-12-04T18:46:39.686Z,2.60
2022-12-04T18:49:09.858Z,2.54
2022-12-04T18:51:46.996Z,2.41
2022-12-04T18:54:21.681Z,2.51
2022-12-04T18:56:51.026Z,2.43
2022-12-04T18:59:22.587Z,2.21
2022-12-04T19:01:52.104Z,2.38
2022-12-04T19:04:22.360Z,2.27
2022-12-04T19:06:57.188Z,2.23
2022-12-04T19:10:02.580Z,2.18
2022-12-04T19:12:17.572Z,2.20
2022-12-04T19:14:48.802Z,2.10
2022-12-04T19:17:17.433Z,2.09
2022-12-04T19:19:44.756Z,2.12
2022-12-04T19:22:12.407Z,2.11
2022-12-04T19:24:39.797Z,2.00
2022-12-04T19:27:12.253Z,2.03
2022-12-04T19:29:40.763Z,1.88
2022-12-04T19:32:08.749Z,1.97
2022-12-04T19:34:36.908Z,1.98
2022-12-04T19:37:04.249Z,1.83
2022-12-04T19:39:32.034Z,1.89
2022-12-04T19:41:59.807Z,1.83
2022-12-04T19:44:47.917Z,1.85
2022-12-04T19:47:14.565Z,1.80
2022-12-04T19:49:41.831Z,1.77
2022-12-04T19:52:09.636Z,1.75
2022-12-04T19:54:37.050Z,1.75
2022-12-04T19:57:04.354Z,1.74
2022-12-04T19:59:37.028Z,1.64
2022-12-04T20:02:14.009Z,1.60
2022-12-04T20:04:41.717Z,1.60
2022-12-04T20:07:09.186Z,1.65
2022-12-04T20:09:36.386Z,1.59
2022-12-04T20:12:05.302Z,1.66
2022-12-04T20:14:32.604Z,1.55
2022-12-04T20:17:02.014Z,1.53
2022-12-04T20:19:29.509Z,1.56
2022-12-04T20:21:59.449Z,1.55
2022-12-04T20:24:27.062Z,1.50
2022-12-04T20:26:54.355Z,1.50
2022-12-04T20:29:22.050Z,1.48
2022-12-04T20:31:49.748Z,1.49
2022-12-04T20:34:19.386Z,1.43
2022-12-04T20:36:48.768Z,1.39
2022-12-04T20:39:18.204Z,1.40
2022-12-04T20:41:45.711Z,1.34
2022-12-04T20:44:15.284Z,1.10
2022-12-04T20:46:43.184Z,1.19
2022-12-04T20:49:21.305Z,1.21
2022-12-04T20:51:55.031Z,1.00
2022-12-04T20:54:24.306Z,1.13
2022-12-04T20:56:55.279Z,1.17
2022-12-04T20:59:25.642Z,1.13
2022-12-04T21:01:53.640Z,1.14
2022-12-04T21:04:21.853Z,1.14
2022-12-04T21:06:49.896Z,1.07
2022-12-04T21:09:20.193Z,1.01
2022-12-04T21:11:50.493Z,1.01
2022-12-04T21:14:56.116Z,1.05
2022-12-04T21:17:24.659Z,0.80
2022-12-04T21:19:55.204Z,0.90
2022-12-04T21:22:22.648Z,0.83
2022-12-04T21:24:50.152Z,0.86
2022-12-04T21:27:20.998Z,0.93
2022-12-04T21:29:49.916Z,0.96
2022-12-04T21:32:18.489Z,0.82
2022-12-04T21:34:45.896Z,0.82
2022-12-04T21:37:13.566Z,0.86
2022-12-04T21:39:42.276Z,0.81
2022-12-04T21:42:28.924Z,0.78
2022-12-04T21:44:57.834Z,0.72
2022-12-04T21:47:25.186Z,0.71
2022-12-04T21:49:58.402Z,0.77
2022-12-04T21:52:29.280Z,0.82
2022-12-04T21:54:57.221Z,0.62
2022-12-04T21:57:25.269Z,0.73
2022-12-04T21:59:52.903Z,0.70
2022-12-04T22:02:20.536Z,0.71
2022-12-04T22:04:48.072Z,0.66
2022-12-04T22:07:16.194Z,0.69
2022-12-04T22:09:43.724Z,0.72
2022-12-04T22:12:33.259Z,0.70
2022-12-04T22:14:58.469Z,0.69
2022-12-04T22:17:30.053Z,0.59
2022-12-04T22:19:57.604Z,0.72
2022-12-04T22:22:25.153Z,0.71
2022-12-04T22:24:52.314Z,0.64
2022-12-04T22:27:20.056Z,0.62
2022-12-04T22:29:50.877Z,0.54
2022-12-04T22:32:20.090Z,0.58
2022-12-04T22:34:50.660Z,0.56
2022-12-04T22:37:18.529Z,0.53
2022-12-04T22:39:46.007Z,0.55
2022-12-04T22:42:13.831Z,0.52
2022-12-04T22:44:41.677Z,0.43
2022-12-04T22:47:09.360Z,0.52
2022-12-04T22:49:36.836Z,0.47
2022-12-04T22:52:04.184Z,0.50
2022-12-04T22:54:31.757Z,0.50
2022-12-04T22:57:03.503Z,0.49
2022-12-04T22:59:31.927Z,0.47
2022-12-04T23:02:00.850Z,0.44
2022-12-04T23:04:28.834Z,0.53
2022-12-04T23:06:56.113Z,0.47
2022-12-04T23:09:23.559Z,0.42
2022-12-04T23:11:52.676Z,0.40
2022-12-04T23:14:20.085Z,0.52
2022-12-04T23:16:47.989Z,0.47
2022-12-04T23:19:19.045Z,0.46
2022-12-04T23:21:50.773Z,0.39
2022-12-04T23:24:22.846Z,0.41
2022-12-04T23:26:50.462Z,0.41
2022-12-04T23:29:45.004Z,0.35
2022-12-04T23:32:05.457Z,0.32
2022-12-04T23:34:32.878Z,0.32
2022-12-04T23:37:00.349Z,0.39
2022-12-04T23:39:27.966Z,0.33
2022-12-04T23:41:55.358Z,0.38
2022-12-04T23:44:22.607Z,0.35
2022-12-04T23:46:49.919Z,0.37
2022-12-04T23:49:17.435Z,0.32
2022-12-04T23:51:44.766Z,0.40
2022-12-04T23:54:12.386Z,0.30
2022-12-04T23:56:39.650Z,0.42
2022-12-04T23:59:07.024Z,0.38
